sensor_id;sensor_type;location;lat;lon;timestamp;pressure;altitude;pressure_sealevel;temperature;humidity
54465;BME280;40374;49.480;20.016;2023-04-01T00:00:13;93278.81;;;9.43;100.00
54465;BME280;40374;49.480;20.016;2023-04-01T00:03:00;93271.22;;;9.27;100.00
54465;BME280;40374;49.480;20.016;2023-04-01T00:05:28;93273.59;;;9.20;100.00
54465;BME280;40374;49.480;20.016;2023-04-01T00:07:55;93274.97;;;9.09;100.00
54465;BME280;40374;49.480;20.016;2023-04-01T00:10:23;93287.41;;;9.05;100.00
54465;BME280;40374;49.480;20.016;2023-04-01T00:12:50;93271.63;;;8.94;100.00
54465;BME280;40374;49.480;20.016;2023-04-01T00:15:18;93282.66;;;8.84;100.00
54465;BME280;40374;49.480;20.016;2023-04-01T00:17:45;93284.88;;;8.91;100.00
54465;BME280;40374;49.480;20.016;2023-04-01T00:20:13;93294.19;;;9.02;100.00
54465;BME280;40374;49.480;20.016;2023-04-01T00:22:41;93295.06;;;9.20;100.00
54465;BME280;40374;49.480;20.016;2023-04-01T00:25:09;93282.44;;;9.29;100.00
54465;BME280;40374;49.480;20.016;2023-04-01T00:27:37;93282.31;;;9.34;100.00
54465;BME280;40374;49.480;20.016;2023-04-01T00:30:05;93273.31;;;9.39;100.00
54465;BME280;40374;49.480;20.016;2023-04-01T00:32:33;93280.44;;;9.52;100.00
54465;BME280;40374;49.480;20.016;2023-04-01T00:35:01;93271.75;;;9.64;100.00
54465;BME280;40374;49.480;20.016;2023-04-01T00:37:29;93274.59;;;9.59;100.00
54465;BME280;40374;49.480;20.016;2023-04-01T00:39:56;93271.75;;;9.64;100.00
54465;BME280;40374;49.480;20.016;2023-04-01T00:42:24;93267.34;;;9.60;100.00
54465;BME280;40374;49.480;20.016;2023-04-01T00:44:54;93269.38;;;9.71;100.00
54465;BME280;40374;49.480;20.016;2023-04-01T00:47:23;93264.03;;;9.71;100.00
54465;BME280;40374;49.480;20.016;2023-04-01T00:49:53;93253.75;;;9.65;100.00
54465;BME280;40374;49.480;20.016;2023-04-01T00:52:25;93244.59;;;9.48;100.00
54465;BME280;40374;49.480;20.016;2023-04-01T00:54:56;93261.81;;;9.47;100.00
54465;BME280;40374;49.480;20.016;2023-04-01T00:57:32;93251.69;;;9.44;100.00
54465;BME280;40374;49.480;20.016;2023-04-01T01:00:05;93269.03;;;9.47;100.00
54465;BME280;40374;49.480;20.016;2023-04-01T01:02:35;93275.53;;;9.63;100.00
54465;BME280;40374;49.480;20.016;2023-04-01T01:05:03;93270.94;;;9.64;100.00
54465;BME280;40374;49.480;20.016;2023-04-01T01:10:23;93284.53;;;9.76;100.00
54465;BME280;40374;49.480;20.016;2023-04-01T01:13:11;93278.72;;;9.83;100.00
54465;BME280;40374;49.480;20.016;2023-04-01T01:15:56;93263.88;;;9.77;100.00
54465;BME280;40374;49.480;20.016;2023-04-01T01:18:53;93271.75;;;9.82;100.00
54465;BME280;40374;49.480;20.016;2023-04-01T01:36:55;93262.53;;;9.13;100.00
54465;BME280;40374;49.480;20.016;2023-04-01T01:39:26;93268.16;;;8.94;100.00
54465;BME280;40374;49.480;20.016;2023-04-01T01:42:00;93273.47;;;8.85;100.00
54465;BME280;40374;49.480;20.016;2023-04-01T01:44:30;93272.34;;;8.78;100.00
54465;BME280;40374;49.480;20.016;2023-04-01T01:46:58;93275.31;;;8.67;100.00
54465;BME280;40374;49.480;20.016;2023-04-01T01:49:28;93270.31;;;8.83;100.00
54465;BME280;40374;49.480;20.016;2023-04-01T01:51:57;93271.47;;;8.91;100.00
54465;BME280;40374;49.480;20.016;2023-04-01T01:54:25;93273.88;;;9.01;100.00
54465;BME280;40374;49.480;20.016;2023-04-01T01:57:01;93285.09;;;9.12;100.00
54465;BME280;40374;49.480;20.016;2023-04-01T01:59:33;93279.25;;;9.10;100.00
54465;BME280;40374;49.480;20.016;2023-04-01T02:02:05;93271.84;;;9.16;100.00
54465;BME280;40374;49.480;20.016;2023-04-01T02:04:37;93278.97;;;9.29;100.00
54465;BME280;40374;49.480;20.016;2023-04-01T02:07:35;93277.41;;;9.37;100.00
54465;BME280;40374;49.480;20.016;2023-04-01T02:10:01;93276.47;;;9.32;100.00
54465;BME280;40374;49.480;20.016;2023-04-01T02:12:29;93287.34;;;9.36;100.00
54465;BME280;40374;49.480;20.016;2023-04-01T02:15:06;93289.44;;;9.48;100.00
54465;BME280;40374;49.480;20.016;2023-04-01T02:17:39;93287.69;;;9.52;100.00
54465;BME280;40374;49.480;20.016;2023-04-01T02:20:13;93290.22;;;9.57;100.00
54465;BME280;40374;49.480;20.016;2023-04-01T02:22:51;93296.22;;;9.63;100.00
54465;BME280;40374;49.480;20.016;2023-04-01T02:25:23;93288.34;;;9.58;100.00
54465;BME280;40374;49.480;20.016;2023-04-01T02:27:53;93292.13;;;9.57;100.00
54465;BME280;40374;49.480;20.016;2023-04-01T02:30:23;93294.31;;;9.46;100.00
54465;BME280;40374;49.480;20.016;2023-04-01T02:32:51;93292.88;;;9.31;100.00
54465;BME280;40374;49.480;20.016;2023-04-01T02:35:19;93283.69;;;9.23;100.00
54465;BME280;40374;49.480;20.016;2023-04-01T02:37:48;93297.59;;;9.43;100.00
54465;BME280;40374;49.480;20.016;2023-04-01T02:40:17;93299.19;;;9.26;100.00
54465;BME280;40374;49.480;20.016;2023-04-01T02:42:44;93286.34;;;9.06;100.00
54465;BME280;40374;49.480;20.016;2023-04-01T02:45:13;93300.06;;;9.13;100.00
54465;BME280;40374;49.480;20.016;2023-04-01T02:47:42;93304.53;;;9.18;100.00
54465;BME280;40374;49.480;20.016;2023-04-01T02:50:10;93304.19;;;9.19;100.00
54465;BME280;40374;49.480;20.016;2023-04-01T02:52:37;93299.59;;;9.20;100.00
54465;BME280;40374;49.480;20.016;2023-04-01T02:55:06;93302.81;;;9.30;100.00
54465;BME280;40374;49.480;20.016;2023-04-01T02:57:33;93303.59;;;9.22;100.00
54465;BME280;40374;49.480;20.016;2023-04-01T03:00:01;93297.88;;;9.24;100.00
54465;BME280;40374;49.480;20.016;2023-04-01T03:02:28;93286.34;;;9.14;100.00
54465;BME280;40374;49.480;20.016;2023-04-01T03:04:56;93291.72;;;9.23;100.00
54465;BME280;40374;49.480;20.016;2023-04-01T03:07:23;93293.94;;;9.21;100.00
54465;BME280;40374;49.480;20.016;2023-04-01T03:09:51;93289.22;;;9.18;100.00
54465;BME280;40374;49.480;20.016;2023-04-01T03:12:18;93293.03;;;9.34;100.00
54465;BME280;40374;49.480;20.016;2023-04-01T03:14:50;93304.69;;;9.30;100.00
54465;BME280;40374;49.480;20.016;2023-04-01T03:17:17;93293.81;;;9.26;100.00
54465;BME280;40374;49.480;20.016;2023-04-01T03:19:45;93296.34;;;9.31;100.00
54465;BME280;40374;49.480;20.016;2023-04-01T03:22:13;93309.28;;;9.29;100.00
54465;BME280;40374;49.480;20.016;2023-04-01T03:24:41;93308.50;;;9.29;100.00
54465;BME280;40374;49.480;20.016;2023-04-01T03:27:08;93291.91;;;9.18;100.00
54465;BME280;40374;49.480;20.016;2023-04-01T03:29:35;93299.78;;;9.23;100.00
54465;BME280;40374;49.480;20.016;2023-04-01T03:32:03;93294.78;;;9.30;100.00
54465;BME280;40374;49.480;20.016;2023-04-01T03:34:31;93305.31;;;9.27;100.00
54465;BME280;40374;49.480;20.016;2023-04-01T03:36:58;93314.63;;;9.29;100.00
54465;BME280;40374;49.480;20.016;2023-04-01T03:39:26;93306.88;;;9.28;100.00
54465;BME280;40374;49.480;20.016;2023-04-01T03:41:54;93314.50;;;9.34;100.00
54465;BME280;40374;49.480;20.016;2023-04-01T03:44:21;93305.16;;;9.23;100.00
54465;BME280;40374;49.480;20.016;2023-04-01T03:46:54;93306.75;;;9.24;100.00
54465;BME280;40374;49.480;20.016;2023-04-01T03:49:22;93315.88;;;9.23;100.00
54465;BME280;40374;49.480;20.016;2023-04-01T03:51:49;93317.78;;;9.31;100.00
54465;BME280;40374;49.480;20.016;2023-04-01T03:54:17;93315.78;;;9.37;100.00
54465;BME280;40374;49.480;20.016;2023-04-01T03:56:45;93321.16;;;9.46;100.00
54465;BME280;40374;49.480;20.016;2023-04-01T03:59:13;93320.69;;;9.52;100.00
54465;BME280;40374;49.480;20.016;2023-04-01T04:01:40;93317.53;;;9.59;100.00
54465;BME280;40374;49.480;20.016;2023-04-01T04:04:11;93320.09;;;9.64;100.00
54465;BME280;40374;49.480;20.016;2023-04-01T04:06:40;93328.44;;;9.54;100.00
54465;BME280;40374;49.480;20.016;2023-04-01T04:09:08;93326.34;;;9.51;100.00
54465;BME280;40374;49.480;20.016;2023-04-01T04:11:35;93321.31;;;9.49;100.00
54465;BME280;40374;49.480;20.016;2023-04-01T04:14:03;93316.56;;;9.55;100.00
54465;BME280;40374;49.480;20.016;2023-04-01T04:16:30;93329.97;;;9.46;100.00
54465;BME280;40374;49.480;20.016;2023-04-01T04:19:02;93322.72;;;9.47;100.00
54465;BME280;40374;49.480;20.016;2023-04-01T04:21:31;93333.31;;;9.43;100.00
54465;BME280;40374;49.480;20.016;2023-04-01T04:24:00;93326.34;;;9.42;100.00
54465;BME280;40374;49.480;20.016;2023-04-01T04:26:36;93331.09;;;9.37;100.00
54465;BME280;40374;49.480;20.016;2023-04-01T04:29:06;93326.03;;;9.44;100.00
54465;BME280;40374;49.480;20.016;2023-04-01T04:31:33;93321.13;;;9.37;100.00
54465;BME280;40374;49.480;20.016;2023-04-01T04:34:01;93307.06;;;9.31;100.00
54465;BME280;40374;49.480;20.016;2023-04-01T04:36:33;93312.44;;;9.31;100.00
54465;BME280;40374;49.480;20.016;2023-04-01T04:39:00;93316.22;;;9.30;100.00
54465;BME280;40374;49.480;20.016;2023-04-01T04:41:32;93310.22;;;9.33;100.00
54465;BME280;40374;49.480;20.016;2023-04-01T04:44:02;93296.50;;;9.35;100.00
54465;BME280;40374;49.480;20.016;2023-04-01T04:46:32;93292.72;;;9.45;100.00
54465;BME280;40374;49.480;20.016;2023-04-01T04:49:10;93310.09;;;9.39;100.00
54465;BME280;40374;49.480;20.016;2023-04-01T04:51:37;93318.94;;;9.48;100.00
54465;BME280;40374;49.480;20.016;2023-04-01T04:54:06;93319.91;;;9.52;100.00
54465;BME280;40374;49.480;20.016;2023-04-01T04:56:55;93299.97;;;9.35;100.00
54465;BME280;40374;49.480;20.016;2023-04-01T04:59:24;93309.75;;;9.40;100.00
54465;BME280;40374;49.480;20.016;2023-04-01T05:01:59;93305.53;;;9.48;100.00
54465;BME280;40374;49.480;20.016;2023-04-01T05:04:28;93309.47;;;9.59;100.00
54465;BME280;40374;49.480;20.016;2023-04-01T05:06:55;93301.44;;;9.59;100.00
54465;BME280;40374;49.480;20.016;2023-04-01T05:09:23;93305.06;;;9.72;100.00
54465;BME280;40374;49.480;20.016;2023-04-01T05:11:50;93311.25;;;9.72;100.00
54465;BME280;40374;49.480;20.016;2023-04-01T05:14:19;93313.63;;;9.83;100.00
54465;BME280;40374;49.480;20.016;2023-04-01T05:16:54;93322.59;;;9.87;100.00
54465;BME280;40374;49.480;20.016;2023-04-01T05:19:22;93319.91;;;9.87;100.00
54465;BME280;40374;49.480;20.016;2023-04-01T05:21:50;93319.44;;;9.85;100.00
54465;BME280;40374;49.480;20.016;2023-04-01T05:24:17;93312.69;;;9.87;100.00
54465;BME280;40374;49.480;20.016;2023-04-01T05:26:45;93325.28;;;9.87;100.00
54465;BME280;40374;49.480;20.016;2023-04-01T05:29:13;93322.00;;;9.90;100.00
54465;BME280;40374;49.480;20.016;2023-04-01T05:31:42;93322.28;;;9.97;100.00
54465;BME280;40374;49.480;20.016;2023-04-01T05:34:09;93328.31;;;9.94;100.00
54465;BME280;40374;49.480;20.016;2023-04-01T05:36:37;93330.53;;;9.92;100.00
54465;BME280;40374;49.480;20.016;2023-04-01T05:39:05;93316.94;;;9.80;100.00
54465;BME280;40374;49.480;20.016;2023-04-01T05:41:35;93336.53;;;10.06;100.00
54465;BME280;40374;49.480;20.016;2023-04-01T05:44:04;93334.63;;;9.89;100.00
54465;BME280;40374;49.480;20.016;2023-04-01T05:46:41;93333.69;;;9.94;100.00
54465;BME280;40374;49.480;20.016;2023-04-01T05:49:16;93325.28;;;9.87;100.00
54465;BME280;40374;49.480;20.016;2023-04-01T05:51:43;93331.13;;;9.89;100.00
54465;BME280;40374;49.480;20.016;2023-04-01T05:54:11;93326.25;;;9.91;100.00
54465;BME280;40374;49.480;20.016;2023-04-01T05:56:40;93332.91;;;10.02;100.00
54465;BME280;40374;49.480;20.016;2023-04-01T05:59:10;93338.56;;;10.18;100.00
54465;BME280;40374;49.480;20.016;2023-04-01T06:01:37;93331.16;;;10.06;100.00
54465;BME280;40374;49.480;20.016;2023-04-01T06:04:05;93334.47;;;10.12;100.00
54465;BME280;40374;49.480;20.016;2023-04-01T06:06:34;93335.44;;;10.25;100.00
54465;BME280;40374;49.480;20.016;2023-04-01T06:09:29;93331.59;;;10.52;100.00
54465;BME280;40374;49.480;20.016;2023-04-01T06:12:27;93328.13;;;10.60;100.00
54465;BME280;40374;49.480;20.016;2023-04-01T06:18:04;93330.19;;;10.54;100.00
54465;BME280;40374;49.480;20.016;2023-04-01T06:20:46;93326.72;;;10.45;100.00
54465;BME280;40374;49.480;20.016;2023-04-01T06:26:04;93321.97;;;10.51;100.00
54465;BME280;40374;49.480;20.016;2023-04-01T06:31:50;93336.19;;;10.51;100.00
54465;BME280;40374;49.480;20.016;2023-04-01T06:35:29;93329.38;;;10.54;100.00
54465;BME280;40374;49.480;20.016;2023-04-01T06:37:34;93317.81;;;10.62;100.00
54465;BME280;40374;49.480;20.016;2023-04-01T06:56:12;93309.81;;;11.60;100.00
54465;BME280;40374;49.480;20.016;2023-04-01T06:59:21;93311.88;;;11.93;100.00
54465;BME280;40374;49.480;20.016;2023-04-01T07:04:43;93315.28;;;11.72;100.00
54465;BME280;40374;49.480;20.016;2023-04-01T07:10:25;93317.81;;;11.48;100.00
54465;BME280;40374;49.480;20.016;2023-04-01T07:13:29;93315.53;;;11.29;100.00
54465;BME280;40374;49.480;20.016;2023-04-01T07:16:08;93316.19;;;11.26;100.00
54465;BME280;40374;49.480;20.016;2023-04-01T07:19:31;93304.63;;;11.25;100.00
54465;BME280;40374;49.480;20.016;2023-04-01T07:21:48;93322.50;;;11.30;100.00
54465;BME280;40374;49.480;20.016;2023-04-01T07:24:33;93329.31;;;11.27;100.00
54465;BME280;40374;49.480;20.016;2023-04-01T07:27:08;93327.81;;;11.09;100.00
54465;BME280;40374;49.480;20.016;2023-04-01T07:29:38;93331.38;;;10.83;100.00
54465;BME280;40374;49.480;20.016;2023-04-01T07:34:50;93332.47;;;11.29;100.00
54465;BME280;40374;49.480;20.016;2023-04-01T07:45:36;93346.59;;;11.26;100.00
54465;BME280;40374;49.480;20.016;2023-04-01T07:48:32;93325.06;;;11.26;100.00
54465;BME280;40374;49.480;20.016;2023-04-01T07:51:27;93335.94;;;11.38;100.00
54465;BME280;40374;49.480;20.016;2023-04-01T07:57:27;93335.03;;;11.55;100.00
54465;BME280;40374;49.480;20.016;2023-04-01T08:03:53;93342.41;;;11.97;100.00
54465;BME280;40374;49.480;20.016;2023-04-01T08:05:58;93328.84;;;11.85;100.00
54465;BME280;40374;49.480;20.016;2023-04-01T08:09:02;93337.63;;;11.73;100.00
54465;BME280;40374;49.480;20.016;2023-04-01T08:12:02;93346.84;;;11.63;100.00
54465;BME280;40374;49.480;20.016;2023-04-01T08:21:06;93346.59;;;12.82;100.00
54465;BME280;40374;49.480;20.016;2023-04-01T08:23:40;93340.91;;;13.20;100.00
54465;BME280;40374;49.480;20.016;2023-04-01T08:29:23;93346.50;;;13.36;87.45
54465;BME280;40374;49.480;20.016;2023-04-01T08:32:39;93345.53;;;13.20;87.67
54465;BME280;40374;49.480;20.016;2023-04-01T08:35:09;93342.22;;;13.60;83.26
54465;BME280;40374;49.480;20.016;2023-04-01T08:37:43;93325.25;;;14.12;94.95
54465;BME280;40374;49.480;20.016;2023-04-01T08:46:33;93324.75;;;15.07;64.35
54465;BME280;40374;49.480;20.016;2023-04-01T08:52:13;93316.91;;;13.52;69.24
54465;BME280;40374;49.480;20.016;2023-04-01T09:03:37;93318.94;;;12.97;94.22
54465;BME280;40374;49.480;20.016;2023-04-01T09:12:30;93319.06;;;12.43;71.05
54465;BME280;40374;49.480;20.016;2023-04-01T09:52:09;93317.25;;;14.56;63.55
54465;BME280;40374;49.480;20.016;2023-04-01T09:54:57;93316.91;;;15.02;62.61
54465;BME280;40374;49.480;20.016;2023-04-01T10:00:18;93338.16;;;13.78;60.42
54465;BME280;40374;49.480;20.016;2023-04-01T10:14:59;93337.56;;;13.85;63.37
54465;BME280;40374;49.480;20.016;2023-04-01T10:32:57;93348.91;;;12.38;72.69
54465;BME280;40374;49.480;20.016;2023-04-01T10:53:46;93356.41;;;12.32;78.96
54465;BME280;40374;49.480;20.016;2023-04-01T10:56:37;93359.34;;;12.61;76.04
54465;BME280;40374;49.480;20.016;2023-04-01T11:44:33;93337.75;;;14.57;69.08
54465;BME280;40374;49.480;20.016;2023-04-01T11:47:22;93333.03;;;14.98;68.93
54465;BME280;40374;49.480;20.016;2023-04-01T11:50:30;93341.94;;;14.83;64.21
54465;BME280;40374;49.480;20.016;2023-04-01T11:58:47;93342.25;;;15.57;64.50
54465;BME280;40374;49.480;20.016;2023-04-01T12:07:05;93346.00;;;15.53;58.68
54465;BME280;40374;49.480;20.016;2023-04-01T12:15:59;93343.53;;;14.03;61.98
54465;BME280;40374;49.480;20.016;2023-04-01T12:18:42;93357.75;;;13.63;63.17
54465;BME280;40374;49.480;20.016;2023-04-01T12:27:05;93352.81;;;13.07;77.80
54465;BME280;40374;49.480;20.016;2023-04-01T12:35:58;93344.13;;;18.78;57.50
54465;BME280;40374;49.480;20.016;2023-04-01T12:44:16;93350.25;;;19.01;50.58
54465;BME280;40374;49.480;20.016;2023-04-01T12:55:37;93354.88;;;20.27;45.95
54465;BME280;40374;49.480;20.016;2023-04-01T12:58:35;93353.47;;;20.55;46.03
54465;BME280;40374;49.480;20.016;2023-04-01T13:01:23;93357.88;;;19.22;47.37
54465;BME280;40374;49.480;20.016;2023-04-01T13:07:22;93353.59;;;16.50;52.41
54465;BME280;40374;49.480;20.016;2023-04-01T13:13:02;93368.22;;;15.74;57.30
54465;BME280;40374;49.480;20.016;2023-04-01T13:24:36;93344.06;;;16.20;54.55
54465;BME280;40374;49.480;20.016;2023-04-01T13:27:17;93369.44;;;15.93;55.02
54465;BME280;40374;49.480;20.016;2023-04-01T13:43:43;93387.34;;;13.96;66.79
54465;BME280;40374;49.480;20.016;2023-04-01T13:49:07;93392.66;;;13.80;70.32
54465;BME280;40374;49.480;20.016;2023-04-01T13:52:05;93388.38;;;13.67;76.48
54465;BME280;40374;49.480;20.016;2023-04-01T14:01:00;93390.44;;;12.79;88.11
54465;BME280;40374;49.480;20.016;2023-04-01T14:09:43;93391.88;;;12.55;89.97
54465;BME280;40374;49.480;20.016;2023-04-01T14:12:29;93383.75;;;12.64;90.77
54465;BME280;40374;49.480;20.016;2023-04-01T14:20:53;93398.59;;;12.28;95.78
54465;BME280;40374;49.480;20.016;2023-04-01T14:23:37;93391.91;;;12.34;99.59
54465;BME280;40374;49.480;20.016;2023-04-01T14:29:14;93410.84;;;12.26;100.00
54465;BME280;40374;49.480;20.016;2023-04-01T14:31:52;93399.34;;;12.16;100.00
54465;BME280;40374;49.480;20.016;2023-04-01T14:34:33;93408.75;;;12.31;100.00
54465;BME280;40374;49.480;20.016;2023-04-01T14:40:17;93406.66;;;12.70;94.15
54465;BME280;40374;49.480;20.016;2023-04-01T14:43:18;93411.97;;;12.67;90.68
54465;BME280;40374;49.480;20.016;2023-04-01T14:48:57;93410.38;;;12.66;91.37
54465;BME280;40374;49.480;20.016;2023-04-01T14:51:39;93403.59;;;13.26;85.87
54465;BME280;40374;49.480;20.016;2023-04-01T14:56:43;93406.41;;;15.53;61.31
54465;BME280;40374;49.480;20.016;2023-04-01T14:59:25;93400.84;;;16.29;57.64
54465;BME280;40374;49.480;20.016;2023-04-01T15:11:02;93406.38;;;13.88;70.27
54465;BME280;40374;49.480;20.016;2023-04-01T15:13:49;93417.81;;;13.48;80.76
54465;BME280;40374;49.480;20.016;2023-04-01T15:37:15;93432.66;;;12.12;100.00
54465;BME280;40374;49.480;20.016;2023-04-01T15:40:08;93439.94;;;12.11;100.00
54465;BME280;40374;49.480;20.016;2023-04-01T15:43:06;93450.91;;;12.06;100.00
54465;BME280;40374;49.480;20.016;2023-04-01T15:46:13;93455.63;;;12.18;100.00
54465;BME280;40374;49.480;20.016;2023-04-01T16:02:50;93496.06;;;10.80;100.00
54465;BME280;40374;49.480;20.016;2023-04-01T16:08:44;93495.16;;;10.01;100.00
54465;BME280;40374;49.480;20.016;2023-04-01T16:11:37;93491.38;;;10.02;100.00
54465;BME280;40374;49.480;20.016;2023-04-01T16:16:58;93502.16;;;10.20;100.00
54465;BME280;40374;49.480;20.016;2023-04-01T16:19:51;93506.91;;;10.23;100.00
54465;BME280;40374;49.480;20.016;2023-04-01T16:22:38;93509.31;;;10.33;100.00
54465;BME280;40374;49.480;20.016;2023-04-01T16:25:32;93501.25;;;10.33;100.00
54465;BME280;40374;49.480;20.016;2023-04-01T16:28:15;93511.09;;;10.46;100.00
54465;BME280;40374;49.480;20.016;2023-04-01T16:30:55;93512.19;;;10.54;100.00
54465;BME280;40374;49.480;20.016;2023-04-01T16:36:21;93514.25;;;10.66;100.00
54465;BME280;40374;49.480;20.016;2023-04-01T16:47:40;93520.41;;;10.66;100.00
54465;BME280;40374;49.480;20.016;2023-04-01T16:50:27;93517.59;;;10.71;100.00
54465;BME280;40374;49.480;20.016;2023-04-01T16:53:17;93521.22;;;10.67;100.00
54465;BME280;40374;49.480;20.016;2023-04-01T17:01:20;93538.63;;;10.61;100.00
54465;BME280;40374;49.480;20.016;2023-04-01T17:04:16;93549.88;;;10.71;100.00
54465;BME280;40374;49.480;20.016;2023-04-01T17:17:27;93560.75;;;10.75;100.00
54465;BME280;40374;49.480;20.016;2023-04-01T17:33:45;93576.63;;;10.28;100.00
54465;BME280;40374;49.480;20.016;2023-04-01T17:40:05;93572.16;;;10.14;100.00
54465;BME280;40374;49.480;20.016;2023-04-01T17:42:19;93579.22;;;10.02;100.00
54465;BME280;40374;49.480;20.016;2023-04-01T17:45:10;93582.41;;;10.12;100.00
54465;BME280;40374;49.480;20.016;2023-04-01T17:48:21;93584.22;;;9.94;100.00
54465;BME280;40374;49.480;20.016;2023-04-01T17:56:21;93585.25;;;10.16;100.00
54465;BME280;40374;49.480;20.016;2023-04-01T18:02:11;93596.06;;;10.25;100.00
54465;BME280;40374;49.480;20.016;2023-04-01T18:07:43;93600.41;;;10.12;100.00
54465;BME280;40374;49.480;20.016;2023-04-01T18:10:25;93601.97;;;10.35;100.00
54465;BME280;40374;49.480;20.016;2023-04-01T18:15:49;93612.38;;;10.37;100.00
54465;BME280;40374;49.480;20.016;2023-04-01T18:21:27;93610.34;;;10.34;100.00
54465;BME280;40374;49.480;20.016;2023-04-01T18:24:29;93613.31;;;10.32;100.00
54465;BME280;40374;49.480;20.016;2023-04-01T18:27:03;93624.03;;;10.24;100.00
54465;BME280;40374;49.480;20.016;2023-04-01T18:29:50;93627.81;;;10.23;100.00
54465;BME280;40374;49.480;20.016;2023-04-01T18:35:17;93636.59;;;10.06;100.00
54465;BME280;40374;49.480;20.016;2023-04-01T18:40:40;93623.81;;;10.11;100.00
54465;BME280;40374;49.480;20.016;2023-04-01T18:43:38;93632.56;;;10.26;100.00
54465;BME280;40374;49.480;20.016;2023-04-01T18:46:19;93639.44;;;10.09;100.00
54465;BME280;40374;49.480;20.016;2023-04-01T18:48:57;93646.41;;;10.10;100.00
54465;BME280;40374;49.480;20.016;2023-04-01T18:51:50;93642.00;;;10.14;100.00
54465;BME280;40374;49.480;20.016;2023-04-01T18:57:03;93647.66;;;10.04;100.00
54465;BME280;40374;49.480;20.016;2023-04-01T18:59:40;93652.88;;;10.09;100.00
54465;BME280;40374;49.480;20.016;2023-04-01T19:04:57;93666.97;;;10.15;100.00
54465;BME280;40374;49.480;20.016;2023-04-01T19:10:17;93665.66;;;10.04;100.00
54465;BME280;40374;49.480;20.016;2023-04-01T19:15:50;93665.97;;;10.02;100.00
54465;BME280;40374;49.480;20.016;2023-04-01T19:26:40;93683.59;;;9.94;100.00
54465;BME280;40374;49.480;20.016;2023-04-01T19:35:19;93668.75;;;9.97;100.00
54465;BME280;40374;49.480;20.016;2023-04-01T19:38:14;93683.66;;;10.03;100.00
54465;BME280;40374;49.480;20.016;2023-04-01T19:43:27;93687.91;;;9.95;100.00
54465;BME280;40374;49.480;20.016;2023-04-01T19:46:10;93686.38;;;9.81;100.00
54465;BME280;40374;49.480;20.016;2023-04-01T19:49:09;93702.59;;;9.75;100.00
54465;BME280;40374;49.480;20.016;2023-04-01T19:57:05;93707.06;;;9.58;100.00
54465;BME280;40374;49.480;20.016;2023-04-01T20:02:33;93719.09;;;9.83;100.00
54465;BME280;40374;49.480;20.016;2023-04-01T20:05:24;93725.69;;;9.77;100.00
54465;BME280;40374;49.480;20.016;2023-04-01T20:08:15;93711.38;;;9.67;100.00
54465;BME280;40374;49.480;20.016;2023-04-01T20:11:04;93713.09;;;9.63;100.00
54465;BME280;40374;49.480;20.016;2023-04-01T20:19:44;93721.47;;;9.62;100.00
54465;BME280;40374;49.480;20.016;2023-04-01T20:28:19;93729.94;;;9.78;100.00
54465;BME280;40374;49.480;20.016;2023-04-01T20:37:14;93736.66;;;9.66;100.00
54465;BME280;40374;49.480;20.016;2023-04-01T20:39:40;93736.53;;;9.71;100.00
54465;BME280;40374;49.480;20.016;2023-04-01T20:45:20;93733.41;;;9.78;100.00
54465;BME280;40374;49.480;20.016;2023-04-01T20:51:04;93745.03;;;9.87;100.00
54465;BME280;40374;49.480;20.016;2023-04-01T21:01:29;93754.94;;;9.87;100.00
54465;BME280;40374;49.480;20.016;2023-04-01T21:04:30;62409.59;;;-145.97;100.00
54465;BME280;40374;49.480;20.016;2023-04-01T21:07:14;62409.59;;;-145.97;100.00
54465;BME280;40374;49.480;20.016;2023-04-01T21:10:18;62409.59;;;-145.97;100.00
54465;BME280;40374;49.480;20.016;2023-04-01T21:13:03;62409.59;;;-145.97;100.00
54465;BME280;40374;49.480;20.016;2023-04-01T21:30:11;62409.59;;;-145.97;100.00
54465;BME280;40374;49.480;20.016;2023-04-01T21:33:08;62409.59;;;-145.97;100.00
54465;BME280;40374;49.480;20.016;2023-04-01T21:35:48;62409.59;;;-145.97;100.00
54465;BME280;40374;49.480;20.016;2023-04-01T21:43:56;62409.59;;;-145.97;100.00
54465;BME280;40374;49.480;20.016;2023-04-01T21:49:24;62409.59;;;-145.97;100.00
54465;BME280;40374;49.480;20.016;2023-04-01T21:55:33;62409.59;;;-145.97;100.00
54465;BME280;40374;49.480;20.016;2023-04-01T22:01:05;62409.59;;;-145.97;100.00
54465;BME280;40374;49.480;20.016;2023-04-01T22:06:22;62409.59;;;-145.97;100.00
54465;BME280;40374;49.480;20.016;2023-04-01T22:08:54;62409.59;;;-145.97;100.00
54465;BME280;40374;49.480;20.016;2023-04-01T22:16:48;62409.59;;;-145.97;100.00
54465;BME280;40374;49.480;20.016;2023-04-01T22:22:23;62409.59;;;-145.97;100.00
54465;BME280;40374;49.480;20.016;2023-04-01T22:25:11;62409.59;;;-145.97;100.00
54465;BME280;40374;49.480;20.016;2023-04-01T22:27:51;62409.59;;;-145.97;100.00
54465;BME280;40374;49.480;20.016;2023-04-01T22:30:24;62409.59;;;-145.97;100.00
54465;BME280;40374;49.480;20.016;2023-04-01T22:36:17;62409.59;;;-145.97;100.00
54465;BME280;40374;49.480;20.016;2023-04-01T22:38:59;62409.59;;;-145.97;100.00
54465;BME280;40374;49.480;20.016;2023-04-01T22:44:46;62409.59;;;-145.97;100.00
54465;BME280;40374;49.480;20.016;2023-04-01T22:47:44;62409.59;;;-145.97;100.00
54465;BME280;40374;49.480;20.016;2023-04-01T22:50:26;62409.59;;;-145.97;100.00
54465;BME280;40374;49.480;20.016;2023-04-01T22:55:50;62409.59;;;-145.97;100.00
54465;BME280;40374;49.480;20.016;2023-04-01T22:58:30;62409.59;;;-145.97;100.00
54465;BME280;40374;49.480;20.016;2023-04-01T23:01:06;62409.59;;;-145.97;100.00
54465;BME280;40374;49.480;20.016;2023-04-01T23:03:38;62409.59;;;-145.97;100.00
54465;BME280;40374;49.480;20.016;2023-04-01T23:06:17;62409.59;;;-145.97;100.00